Troy, OH (45373)

4:28 PM EST op 21 december 2014 (GMT -0500)
Rural | Change Station
CLOSE
Current Station
Persoonlijk weerstation
Location: Troy, OH
Geometrische hoogte: 854 ft
Nabije weerstations

Hoogte 854 ft 40.01 °N, 84.21 °W | Updated 46 seconds ago

Gedeeltelijk bewolkt
Gedeeltelijk bewolkt
35.5 °F
Voelt als 36 °F
N
0.0
Wind Variabel Wind van oost
Gusts 3.0 mijl/u

Vandaag
Hoog -- | Laag -- °F
--% Kans op neerslag
Gisteren
Hoog -- | Laag -- °F
Precip. -- inches
7:55 AM 5:14 PM
Afnemende halvemaan, 0% visible
Druk 30.19 inches
Zicht 7.0 mijlen
Wolken Geheel bewolkt 23000 ft
Gevoelstemperatuur 36 °F
Dauwpunt 26 °F
Vochtigheid 67%
Neerslag 0.00 inches
Dikte sneeuw Niet beschikbaar.
UV 0.0 van de 12
Pollen .10 van de 12
Luchtkwaliteit Niet beschikbaar.
Flu Activity Niet beschikbaar.
METAR KDAY 212056Z 13008KT 7SM OVC230 02/M04 A3019

More Conditions Fewer Conditions

Druk 30.19 inches
Zicht 7.0 mijlen
Wolken Geheel bewolkt 23000 ft
Gevoelstemperatuur 36 °F
Dauwpunt 26 °F
Vochtigheid 67%
Neerslag 0.00 inches
Dikte sneeuw Niet beschikbaar.
UV 0.0 van de 12
Pollen .10 van de 12
Luchtkwaliteit Niet beschikbaar.
Flu Activity Niet beschikbaar.
METAR KDAY 212056Z 13008KT 7SM OVC230 02/M04 A3019

More Conditions Fewer Conditions

10-Day Weather Forecast

Almanac

Astronomie

Dec. 21, 2014 Opkomst Ondergang
Werkelijke tijd
Burgerlijke schemering
Nautische schemering
Astronomische schemering
Maan
Golflengte van het zichtbare licht
Daglengte
Tomorrow will be .
, % of the Moon is Illuminated

Extremen vandaag

State Highs State Lows

Community

WunderPhotos

Upload Photos

1,779,482 foto’s ge-upload!

WunderBlogs® & News

Nearby

Luchtkwaliteit

  Luchtkwaliteit LK-index Verontreinigende stof
Not available.

Dikte sneeuw

Station Depth Geometrische hoogte

Aardbevingen

Stad Distance Mag. Time & Date
Minimum magnitude displayed is 2.5.

Watertemperatuur langs de kust

Plaats Temperatuur

Nabije weerstations